Time;durP1;ratioP1;P1;durP2;ratioP2;P2;SDS_P1;SDS_P2;PMS_P1;PMS_P2;Temp;Humidity;BMP_temperature;BMP_pressure;BME280_temperature;BME280_humidity;BME280_pressure;Samples;Min_cycle;Max_cycle;Signal;HPM_P1;HPM_P2
2024/04/13 00:01:57;;;;;;;14.10;8.60;;;14.90;77.00;;;;;;5454602;26;20739;-73
2024/04/13 00:04:23;;;;;;;18.97;8.90;;;14.80;77.70;;;;;;5485993;26;20326;-73
2024/04/13 00:06:49;;;;;;;23.02;9.43;;;14.90;77.70;;;;;;5486369;26;20322;-72
2024/04/13 00:09:15;;;;;;;25.55;8.85;;;14.90;77.20;;;;;;5486576;26;20326;-72
2024/04/13 00:11:40;;;;;;;16.48;8.98;;;14.80;77.80;;;;;;5486216;26;20432;-73
2024/04/13 00:14:06;;;;;;;22.08;9.57;;;14.80;78.10;;;;;;5486153;26;20329;-73
2024/04/13 00:16:31;;;;;;;24.73;10.10;;;14.80;78.30;;;;;;5486796;26;20322;-72
2024/04/13 00:18:57;;;;;;;18.80;9.10;;;14.70;78.50;;;;;;5486359;26;20358;-72
2024/04/13 00:21:22;;;;;;;15.40;8.90;;;14.80;79.20;;;;;;5453659;26;20749;-73
2024/04/13 00:23:48;;;;;;;17.77;8.57;;;14.70;79.60;;;;;;5485398;26;20445;-73
2024/04/13 00:26:13;;;;;;;19.40;8.73;;;14.80;79.80;;;;;;5486031;26;20325;-73
2024/04/13 00:28:39;;;;;;;15.60;8.50;;;14.70;79.30;;;;;;5485542;26;20338;-74
2024/04/13 00:31:05;;;;;;;18.75;8.95;;;14.60;80.10;;;;;;5484096;26;20381;-73
2024/04/13 00:33:31;;;;;;;14.57;8.20;;;14.60;80.70;;;;;;5452866;26;20334;-73
2024/04/13 00:35:59;;;;;;;17.43;9.00;;;14.70;81.70;;;;;;5453492;26;20386;-72
2024/04/13 00:38:26;;;;;;;15.30;8.98;;;14.70;81.90;;;;;;5485917;26;20764;-72
2024/04/13 00:40:53;;;;;;;18.35;8.70;;;14.50;82.10;;;;;;5485569;26;20835;-72
2024/04/13 00:43:18;;;;;;;19.02;10.45;;;14.60;82.40;;;;;;5485368;26;20359;-72
2024/04/13 00:45:45;;;;;;;15.80;8.80;;;14.60;82.70;;;;;;5485665;26;20895;-71
2024/04/13 00:48:19;;;;;;;16.17;8.90;;;14.60;82.30;;;;;;5485603;26;20334;-71
2024/04/13 00:50:48;;;;;;;16.42;9.32;;;14.60;81.40;;;;;;5485593;26;20334;-72
2024/04/13 00:53:17;;;;;;;19.87;9.57;;;14.50;82.80;;;;;;5484859;26;20898;-72
2024/04/13 00:55:44;;;;;;;20.05;9.70;;;14.50;84.00;;;;;;5485341;26;20326;-73
2024/04/13 00:58:11;;;;;;;18.10;10.95;;;14.40;83.70;;;;;;5485321;26;20694;-73
2024/04/13 01:00:38;;;;;;;18.40;10.50;;;14.40;85.20;;;;;;5485353;26;20356;-72
2024/04/13 01:03:04;;;;;;;15.73;8.63;;;14.30;85.70;;;;;;5485356;26;20665;-72
2024/04/13 01:05:31;;;;;;;20.10;10.35;;;14.30;86.20;;;;;;5483505;26;20420;-73
2024/04/13 01:07:57;;;;;;;18.25;10.75;;;14.30;87.30;;;;;;5484905;26;20378;-72
2024/04/13 01:10:23;;;;;;;21.52;9.13;;;14.20;86.60;;;;;;5485183;26;20333;-72
2024/04/13 01:12:50;;;;;;;18.13;9.07;;;14.30;87.20;;;;;;5484965;26;20429;-71
2024/04/13 01:15:16;;;;;;;18.92;10.02;;;14.20;87.60;;;;;;5484343;26;20407;-72
2024/04/13 01:17:43;;;;;;;15.00;10.05;;;14.20;87.60;;;;;;5485152;26;20374;-72
2024/04/13 01:20:12;;;;;;;20.10;10.00;;;14.30;87.80;;;;;;5452821;26;20331;-73
2024/04/13 01:22:42;;;;;;;17.83;9.52;;;14.20;88.40;;;;;;5485095;26;20673;-72
2024/04/13 01:25:09;;;;;;;15.32;9.40;;;14.20;88.20;;;;;;5484437;26;20357;-72
2024/04/13 01:27:35;;;;;;;20.48;9.40;;;14.20;88.90;;;;;;5484484;26;20334;-72
2024/04/13 01:30:02;;;;;;;18.52;9.80;;;14.20;88.50;;;;;;5484591;26;20373;-71
2024/04/13 01:32:27;;;;;;;23.45;11.65;;;14.20;89.50;;;;;;5484322;26;20351;-72
2024/04/13 01:34:53;;;;;;;13.13;9.50;;;14.00;89.00;;;;;;5484153;26;20706;-73
2024/04/13 01:37:19;;;;;;;16.65;9.05;;;14.20;88.50;;;;;;5484121;26;20322;-72
2024/04/13 01:39:45;;;;;;;13.68;8.80;;;14.10;88.90;;;;;;5485195;26;20356;-72
2024/04/13 01:42:11;;;;;;;13.38;8.68;;;14.10;89.80;;;;;;5484937;26;20334;-72
2024/04/13 01:44:36;;;;;;;16.85;10.63;;;14.00;90.40;;;;;;5487520;26;20705;-73
2024/04/13 01:47:02;;;;;;;17.57;9.60;;;14.00;90.50;;;;;;5487789;26;20327;-72
2024/04/13 01:49:27;;;;;;;18.40;9.90;;;14.10;90.90;;;;;;5487826;26;20318;-71
2024/04/13 01:51:53;;;;;;;14.83;9.80;;;14.00;90.90;;;;;;5487815;26;20326;-72
2024/04/13 01:54:18;;;;;;;18.90;10.45;;;14.00;91.50;;;;;;5487715;26;20330;-72
2024/04/13 01:56:44;;;;;;;16.33;10.00;;;14.00;90.30;;;;;;5488008;26;20424;-73
2024/04/13 01:59:09;;;;;;;16.60;10.03;;;14.00;91.00;;;;;;5488214;26;20680;-73
2024/04/13 02:01:35;;;;;;;17.80;10.17;;;14.00;91.40;;;;;;5487924;26;20322;-72
2024/04/13 02:04:00;;;;;;;17.88;9.90;;;14.00;91.80;;;;;;5487592;26;20378;-73
2024/04/13 02:06:26;;;;;;;15.23;9.73;;;13.70;92.20;;;;;;5487572;26;20366;-72
2024/04/13 02:08:53;;;;;;;17.10;9.80;;;13.90;92.80;;;;;;5455351;26;20371;-72
2024/04/13 02:11:18;;;;;;;21.50;11.10;;;13.80;93.70;;;;;;5487523;26;20503;-73
2024/04/13 02:13:44;;;;;;;23.93;12.00;;;13.80;94.10;;;;;;5487196;26;20326;-72
2024/04/13 02:16:09;;;;;;;22.73;10.77;;;13.70;95.00;;;;;;5487711;26;20404;-72
2024/04/13 02:18:37;;;;;;;20.90;11.00;;;13.70;95.40;;;;;;5487296;26;20347;-72
2024/04/13 02:21:03;;;;;;;20.88;10.48;;;13.60;95.00;;;;;;5487241;26;20665;-72
2024/04/13 02:23:29;;;;;;;17.95;9.70;;;13.70;95.60;;;;;;5487040;26;20763;-72
2024/04/13 02:25:54;;;;;;;20.73;10.97;;;13.70;95.60;;;;;;5487444;26;20363;-72
2024/04/13 02:28:20;;;;;;;18.20;11.15;;;13.80;94.80;;;;;;5487106;26;20334;-72
2024/04/13 02:30:46;;;;;;;17.43;9.87;;;13.80;95.20;;;;;;5487443;26;20661;-72
2024/04/13 02:33:11;;;;;;;17.10;11.50;;;13.80;94.90;;;;;;5487136;26;20326;-72
2024/04/13 02:35:37;;;;;;;18.43;10.47;;;13.80;95.30;;;;;;5487371;26;20322;-71
2024/04/13 02:38:03;;;;;;;20.05;11.30;;;13.80;95.50;;;;;;5487284;26;20899;-73
2024/04/13 02:40:29;;;;;;;19.20;11.30;;;13.70;95.90;;;;;;5487341;26;20389;-72
2024/04/13 02:42:57;;;;;;;19.30;10.40;;;13.70;96.80;;;;;;5487238;26;20322;-74
2024/04/13 02:45:22;;;;;;;18.83;10.52;;;13.70;96.60;;;;;;5486759;26;20445;-72
2024/04/13 02:47:48;;;;;;;25.50;11.90;;;13.70;96.40;;;;;;5486989;26;20798;-71
2024/04/13 02:50:15;;;;;;;22.97;11.27;;;13.70;96.90;;;;;;5486884;26;20957;-73
2024/04/13 02:52:41;;;;;;;22.02;9.70;;;13.70;96.90;;;;;;5486931;26;20322;-73
2024/04/13 02:55:07;;;;;;;16.77;10.90;;;13.70;96.40;;;;;;5485380;26;20327;-72
2024/04/13 02:57:33;;;;;;;13.90;9.90;;;13.70;96.40;;;;;;5486732;26;20509;-72
2024/04/13 02:59:58;;;;;;;23.25;11.30;;;13.60;97.00;;;;;;5486947;26;20318;-72
2024/04/13 03:02:24;;;;;;;24.33;11.30;;;13.50;97.70;;;;;;5486943;26;20444;-71
2024/04/13 03:04:50;;;;;;;20.13;11.20;;;13.60;98.50;;;;;;5487143;26;20338;-73
2024/04/13 03:07:17;;;;;;;25.13;11.20;;;13.60;98.80;;;;;;5487061;26;20833;-72
2024/04/13 03:09:42;;;;;;;17.05;10.43;;;13.50;99.10;;;;;;5487294;26;20745;-71
2024/04/13 03:12:08;;;;;;;16.80;11.40;;;13.50;99.20;;;;;;5487626;26;20334;-72
2024/04/13 03:14:33;;;;;;;18.17;11.13;;;13.50;99.30;;;;;;5486558;26;20389;-71
2024/04/13 03:16:59;;;;;;;21.40;11.47;;;13.50;99.60;;;;;;5454811;26;20706;-71
2024/04/13 03:19:25;;;;;;;17.20;11.00;;;13.40;99.90;;;;;;5487016;26;20318;-73
2024/04/13 03:21:51;;;;;;;21.13;11.43;;;13.40;99.90;;;;;;5454857;26;20699;-71
2024/04/13 03:24:18;;;;;;;24.27;11.52;;;13.40;99.90;;;;;;5486819;26;20318;-72
2024/04/13 03:26:46;;;;;;;18.95;11.23;;;13.30;99.90;;;;;;5487129;26;20346;-71
2024/04/13 03:29:11;;;;;;;25.73;12.45;;;13.20;99.90;;;;;;5486593;26;20323;-72
2024/04/13 03:31:37;;;;;;;17.67;12.23;;;13.30;99.90;;;;;;5454262;26;20322;-71
2024/04/13 03:34:04;;;;;;;19.88;11.98;;;13.30;99.90;;;;;;5486409;26;20797;-71
2024/04/13 03:36:30;;;;;;;22.88;12.70;;;13.20;99.90;;;;;;5486636;26;20322;-71
2024/04/13 03:38:56;;;;;;;20.33;11.83;;;13.00;99.90;;;;;;5486982;26;20330;-71
2024/04/13 03:41:22;;;;;;;22.30;12.50;;;13.10;99.90;;;;;;5486852;26;20706;-71
2024/04/13 03:43:48;;;;;;;22.77;11.60;;;13.00;99.90;;;;;;5485914;26;20825;-72
2024/04/13 03:46:14;;;;;;;21.42;12.98;;;13.00;99.90;;;;;;5486490;26;20836;-72
2024/04/13 03:48:41;;;;;;;21.02;12.50;;;12.90;99.90;;;;;;5486153;26;20359;-71
2024/04/13 03:51:08;;;;;;;19.90;12.73;;;12.90;99.90;;;;;;5486122;26;20433;-71
2024/04/13 03:53:34;;;;;;;24.30;12.32;;;13.50;99.90;;;;;;5485918;26;20314;-72
2024/04/13 03:56:01;;;;;;;25.70;14.82;;;12.90;99.90;;;;;;5454306;26;20342;-72
2024/04/13 03:58:27;;;;;;;23.55;12.68;;;12.90;99.90;;;;;;5486257;26;20367;-72
2024/04/13 04:00:52;;;;;;;24.63;12.80;;;12.90;99.90;;;;;;5486195;26;20353;-72
2024/04/13 04:03:18;;;;;;;22.60;13.38;;;12.90;99.90;;;;;;5453931;26;20677;-72
2024/04/13 04:05:50;;;;;;;19.97;12.83;;;12.90;99.90;;;;;;5485935;26;20322;-72
2024/04/13 04:08:16;;;;;;;21.65;13.43;;;12.80;99.90;;;;;;5486137;26;20322;-73
2024/04/13 04:10:42;;;;;;;20.00;12.10;;;12.80;99.90;;;;;;5486058;26;20868;-72
2024/04/13 04:13:07;;;;;;;20.73;13.48;;;12.80;99.90;;;;;;5485464;26;20930;-72
2024/04/13 04:15:34;;;;;;;21.73;13.82;;;12.80;99.90;;;;;;5485857;26;20326;-73
2024/04/13 04:18:00;;;;;;;23.88;13.63;;;12.80;99.90;;;;;;5485816;26;20317;-73
2024/04/13 04:20:25;;;;;;;21.80;12.40;;;12.80;99.90;;;;;;5485708;26;20362;-73
2024/04/13 04:22:52;;;;;;;22.15;13.30;;;12.70;99.90;;;;;;5486037;26;20330;-73
2024/04/13 04:25:21;;;;;;;23.75;12.82;;;12.80;99.90;;;;;;5485417;26;20705;-72
2024/04/13 04:27:47;;;;;;;24.73;13.38;;;12.80;99.90;;;;;;5485860;26;20374;-73
2024/04/13 04:30:13;;;;;;;24.60;13.20;;;12.70;99.90;;;;;;5453886;26;20836;-71
2024/04/13 04:32:38;;;;;;;20.93;13.43;;;12.70;99.90;;;;;;5485755;26;20369;-72
2024/04/13 04:35:06;;;;;;;20.13;13.10;;;12.70;99.90;;;;;;5485138;26;20737;-72
2024/04/13 04:37:33;;;;;;;26.30;14.77;;;12.70;99.90;;;;;;5484658;26;20379;-72
2024/04/13 04:39:59;;;;;;;25.13;12.77;;;12.70;99.90;;;;;;5485777;26;20326;-72
2024/04/13 04:42:24;;;;;;;17.73;12.70;;;12.70;99.90;;;;;;5453219;26;20330;-72
2024/04/13 04:44:50;;;;;;;23.70;12.33;;;12.80;99.90;;;;;;5485622;26;20330;-71
2024/04/13 04:47:18;;;;;;;23.15;13.10;;;12.70;99.90;;;;;;5502528;20;20361;-72
2024/04/13 04:49:46;;;;;;;23.67;12.40;;;12.70;99.90;;;;;;5484927;26;20326;-71
2024/04/13 04:52:12;;;;;;;26.05;14.13;;;12.50;99.90;;;;;;5486593;26;20330;-72
2024/04/13 04:54:38;;;;;;;24.17;12.13;;;12.80;99.90;;;;;;5485533;26;20319;-72
2024/04/13 04:57:04;;;;;;;22.17;13.43;;;12.80;99.90;;;;;;5485979;26;20835;-72
2024/04/13 04:59:30;;;;;;;23.27;13.75;;;12.90;99.90;;;;;;5449266;26;20321;-72
2024/04/13 05:01:56;;;;;;;21.50;12.40;;;12.90;99.90;;;;;;5448979;26;20722;-72
2024/04/13 05:04:22;;;;;;;25.33;13.90;;;12.90;99.90;;;;;;5448411;26;20389;-72
2024/04/13 05:06:47;;;;;;;18.90;12.75;;;13.00;99.90;;;;;;5449149;26;20325;-72
2024/04/13 05:09:13;;;;;;;24.07;12.30;;;13.00;99.90;;;;;;5448679;26;20499;-72
2024/04/13 05:11:39;;;;;;;28.90;13.60;;;13.00;99.90;;;;;;5448443;26;20481;-73
2024/04/13 05:14:07;;;;;;;24.73;13.65;;;13.00;99.90;;;;;;5448338;26;20426;-73
2024/04/13 05:16:34;;;;;;;24.30;13.93;;;13.00;99.90;;;;;;5448368;26;20349;-71
2024/04/13 05:19:00;;;;;;;20.75;13.10;;;13.10;99.90;;;;;;5452055;26;20329;-71
2024/04/13 05:21:26;;;;;;;20.98;12.85;;;13.10;99.90;;;;;;5452408;26;20775;-72
2024/04/13 05:23:52;;;;;;;25.00;12.45;;;13.20;99.90;;;;;;5454126;26;20442;-70
2024/04/13 05:26:17;;;;;;;21.53;13.10;;;13.20;99.90;;;;;;5429044;26;20329;-70
2024/04/13 05:28:43;;;;;;;27.87;13.70;;;13.10;99.90;;;;;;5459146;26;20333;-72
2024/04/13 05:31:09;;;;;;;22.27;13.00;;;13.20;99.90;;;;;;5462864;26;20811;-74
2024/04/13 05:33:36;;;;;;;23.70;13.10;;;13.20;99.90;;;;;;5456622;26;20775;-70
2024/04/13 05:36:02;;;;;;;22.27;12.87;;;13.20;99.90;;;;;;5455682;26;20365;-71
2024/04/13 05:38:29;;;;;;;25.20;13.38;;;13.30;99.90;;;;;;5453069;26;20321;-70
2024/04/13 05:40:55;;;;;;;21.75;12.88;;;13.30;99.90;;;;;;5452389;26;20640;-72
2024/04/13 05:43:21;;;;;;;25.02;15.50;;;13.30;99.90;;;;;;5451514;26;20333;-70
2024/04/13 05:45:47;;;;;;;21.73;12.70;;;13.40;99.90;;;;;;5452156;26;20443;-71
2024/04/13 05:48:12;;;;;;;21.27;13.13;;;13.40;99.90;;;;;;5452529;26;20345;-71
2024/04/13 05:50:38;;;;;;;24.05;13.52;;;13.40;99.90;;;;;;5455401;26;20861;-71
2024/04/13 05:53:04;;;;;;;23.57;13.80;;;13.50;99.60;;;;;;5456728;26;20324;-72
2024/04/13 05:55:30;;;;;;;23.55;13.20;;;13.60;99.00;;;;;;5456022;26;20357;-70
2024/04/13 05:57:56;;;;;;;24.77;13.50;;;13.60;97.80;;;;;;5455492;26;20333;-72
2024/04/13 06:00:22;;;;;;;25.13;15.23;;;13.70;96.20;;;;;;5451882;26;20325;-72
2024/04/13 06:02:48;;;;;;;25.08;13.77;;;13.80;95.30;;;;;;5450033;26;20333;-71
2024/04/13 06:05:14;;;;;;;23.33;11.93;;;13.90;92.70;;;;;;5451361;26;20329;-71
2024/04/13 06:07:39;;;;;;;19.75;13.38;;;14.20;89.10;;;;;;5451316;26;20356;-70
2024/04/13 06:10:07;;;;;;;22.70;12.43;;;14.20;90.00;;;;;;5451363;26;20329;-71
2024/04/13 06:12:33;;;;;;;18.70;11.30;;;14.30;87.90;;;;;;5451142;26;20332;-70
2024/04/13 06:14:59;;;;;;;21.67;11.30;;;14.40;85.60;;;;;;5450911;26;20377;-69
2024/04/13 06:17:24;;;;;;;20.63;11.43;;;14.70;83.10;;;;;;5451356;26;20732;-72
2024/04/13 06:19:50;;;;;;;16.95;10.75;;;14.70;84.10;;;;;;5451068;26;20867;-71
2024/04/13 06:22:20;;;;;;;23.73;12.73;;;14.80;82.00;;;;;;5451957;26;20552;-72
2024/04/13 06:24:46;;;;;;;19.88;11.75;;;14.80;79.00;;;;;;5453383;26;20333;-72
2024/04/13 06:27:12;;;;;;;24.13;10.77;;;15.00;78.30;;;;;;5450580;26;20805;-71
2024/04/13 06:29:37;;;;;;;19.70;10.50;;;15.10;77.00;;;;;;5449644;26;20924;-71
2024/04/13 06:32:04;;;;;;;17.42;11.30;;;15.30;75.30;;;;;;5451467;26;20388;-72
2024/04/13 06:34:30;;;;;;;19.92;10.43;;;15.40;73.50;;;;;;5451191;26;20350;-71
2024/04/13 06:36:55;;;;;;;18.83;10.80;;;15.50;72.30;;;;;;5451409;26;20325;-71
2024/04/13 06:39:21;;;;;;;16.73;10.60;;;15.60;69.70;;;;;;5450842;26;20348;-70
2024/04/13 06:41:46;;;;;;;16.37;10.07;;;15.80;69.20;;;;;;5451323;26;20348;-72
2024/04/13 06:44:13;;;;;;;16.80;10.20;;;15.90;66.80;;;;;;5450834;26;20325;-72
2024/04/13 06:46:38;;;;;;;19.10;10.93;;;16.10;65.80;;;;;;5421065;26;20854;-72
2024/04/13 06:49:04;;;;;;;18.58;9.90;;;16.20;64.30;;;;;;5451392;26;20446;-71
2024/04/13 06:51:29;;;;;;;22.37;10.40;;;16.50;60.50;;;;;;5454183;26;20348;-72
2024/04/13 06:53:55;;;;;;;15.30;10.20;;;16.50;61.40;;;;;;5455369;26;20352;-72
2024/04/13 06:56:20;;;;;;;20.63;10.73;;;16.40;60.50;;;;;;5456424;26;20317;-71
2024/04/13 06:58:46;;;;;;;18.98;9.82;;;16.70;59.80;;;;;;5457130;26;20325;-71
2024/04/13 07:01:12;;;;;;;19.95;10.65;;;16.70;59.20;;;;;;5456858;26;20857;-72
2024/04/13 07:03:40;;;;;;;20.87;11.40;;;16.70;57.50;;;;;;5455969;26;20412;-72
2024/04/13 07:06:06;;;;;;;14.25;9.60;;;16.80;57.60;;;;;;5440995;26;20331;-72
2024/04/13 07:08:32;;;;;;;20.95;9.90;;;16.80;56.90;;;;;;5392636;26;20371;-72
2024/04/13 07:10:57;;;;;;;26.80;10.53;;;16.80;57.80;;;;;;5415038;26;20383;-72
2024/04/13 07:13:23;;;;;;;18.80;9.43;;;17.00;56.60;;;;;;5428066;26;20715;-72
2024/04/13 07:15:49;;;;;;;14.45;9.57;;;17.10;56.20;;;;;;5435236;26;20335;-73
2024/04/13 07:18:15;;;;;;;19.38;10.65;;;17.10;55.70;;;;;;5415317;26;20343;-71
2024/04/13 07:20:44;;;;;;;24.25;11.32;;;17.10;55.00;;;;;;5421658;26;20336;-72
2024/04/13 07:23:10;;;;;;;19.02;10.52;;;17.20;54.00;;;;;;5450437;26;20423;-72
2024/04/13 07:25:36;;;;;;;18.63;10.30;;;17.30;53.20;;;;;;5438553;26;20384;-71
2024/04/13 07:28:01;;;;;;;15.67;10.10;;;17.30;53.50;;;;;;5420073;26;20328;-73
2024/04/13 07:30:27;;;;;;;16.85;10.88;;;17.40;53.40;;;;;;5422644;26;20321;-72
2024/04/13 07:32:52;;;;;;;18.65;9.90;;;17.60;52.90;;;;;;5451132;26;20427;-72
2024/04/13 07:35:18;;;;;;;27.13;12.40;;;17.80;50.20;;;;;;5450689;26;20317;-73
2024/04/13 07:37:44;;;;;;;20.33;11.87;;;17.80;50.50;;;;;;5451188;26;20458;-72
2024/04/13 07:40:09;;;;;;;17.83;10.35;;;17.80;50.20;;;;;;5449816;26;20421;-72
2024/04/13 07:42:35;;;;;;;23.17;10.43;;;18.00;50.10;;;;;;5443448;26;20361;-73
2024/04/13 07:45:00;;;;;;;18.10;10.00;;;18.20;48.60;;;;;;5414014;26;20355;-73
2024/04/13 07:47:26;;;;;;;18.05;10.30;;;18.30;47.10;;;;;;5383454;26;20869;-72
2024/04/13 07:49:53;;;;;;;20.00;10.53;;;18.30;47.00;;;;;;5413995;26;20865;-72
2024/04/13 07:52:18;;;;;;;15.95;9.00;;;18.40;45.80;;;;;;5415187;26;20335;-73
2024/04/13 07:54:44;;;;;;;24.08;10.10;;;18.30;46.00;;;;;;5413580;26;20430;-72
2024/04/13 07:57:10;;;;;;;20.00;9.77;;;18.40;45.70;;;;;;5413861;26;20332;-73
2024/04/13 07:59:36;;;;;;;15.90;9.45;;;18.60;45.50;;;;;;5383050;26;20383;-71
2024/04/13 08:02:01;;;;;;;13.93;8.90;;;18.70;44.20;;;;;;5414596;26;20814;-73
2024/04/13 08:04:27;;;;;;;20.88;9.30;;;18.80;43.00;;;;;;5415351;26;20732;-73
2024/04/13 08:06:52;;;;;;;18.07;8.67;;;18.90;41.60;;;;;;5416088;26;20324;-73
2024/04/13 08:09:18;;;;;;;14.73;7.50;;;19.00;41.60;;;;;;5415740;26;20320;-73
2024/04/13 08:11:43;;;;;;;16.90;8.52;;;19.10;42.10;;;;;;5384333;26;20328;-74
2024/04/13 08:14:09;;;;;;;13.23;7.80;;;19.40;40.80;;;;;;5415712;26;20966;-74
2024/04/13 08:16:34;;;;;;;15.55;7.68;;;19.60;39.20;;;;;;5435227;26;20703;-73
2024/04/13 08:19:00;;;;;;;18.23;8.18;;;19.80;37.80;;;;;;5450841;26;20344;-75
2024/04/13 08:21:26;;;;;;;13.40;8.60;;;20.00;37.70;;;;;;5446687;26;20333;-74
2024/04/13 08:23:51;;;;;;;16.77;7.60;;;20.10;37.00;;;;;;5450034;26;20361;-73
2024/04/13 08:26:17;;;;;;;16.40;7.70;;;20.20;36.60;;;;;;5426539;26;20323;-74
2024/04/13 08:28:42;;;;;;;13.65;7.85;;;20.30;36.30;;;;;;5431917;26;20445;-75
2024/04/13 08:31:08;;;;;;;12.00;7.40;;;20.50;35.70;;;;;;5416626;26;20788;-72
2024/04/13 08:33:33;;;;;;;12.70;6.80;;;20.60;34.90;;;;;;5432676;26;20832;-74
2024/04/13 08:36:06;;;;;;;13.77;7.23;;;20.70;34.90;;;;;;5436607;26;20320;-74
2024/04/13 08:38:32;;;;;;;13.70;7.03;;;20.80;33.70;;;;;;5413505;26;20380;-72
2024/04/13 08:41:02;;;;;;;14.82;7.20;;;20.90;34.10;;;;;;5414571;26;20335;-75
2024/04/13 08:43:28;;;;;;;13.75;8.13;;;21.00;34.00;;;;;;5424074;26;20339;-73
2024/04/13 08:45:55;;;;;;;17.40;7.57;;;21.00;33.60;;;;;;5428856;26;20324;-73
2024/04/13 08:48:22;;;;;;;16.80;8.00;;;20.90;34.10;;;;;;5427634;26;20726;-72
2024/04/13 08:50:49;;;;;;;15.00;7.90;;;21.00;34.30;;;;;;5427733;26;20340;-74
2024/04/13 08:53:17;;;;;;;14.98;7.70;;;21.10;34.00;;;;;;5397038;26;20383;-73
2024/04/13 08:55:44;;;;;;;12.27;7.53;;;21.10;33.60;;;;;;5429672;26;20328;-73
2024/04/13 08:58:11;;;;;;;14.30;7.80;;;21.10;33.80;;;;;;5422363;26;20368;-74
2024/04/13 09:00:37;;;;;;;19.15;7.95;;;21.10;33.30;;;;;;5393151;26;20328;-72
2024/04/13 09:03:03;;;;;;;15.73;8.00;;;21.30;34.00;;;;;;5423469;26;20408;-72
2024/04/13 09:05:29;;;;;;;15.60;8.00;;;21.50;33.50;;;;;;5420699;26;20332;-74
2024/04/13 09:07:58;;;;;;;16.15;8.30;;;21.50;33.00;;;;;;5420974;26;20339;-73
2024/04/13 09:10:25;;;;;;;18.15;8.23;;;21.30;32.80;;;;;;5421580;26;20745;-74
2024/04/13 09:12:51;;;;;;;14.68;8.05;;;21.40;33.40;;;;;;5421332;26;20362;-72
2024/04/13 09:15:16;;;;;;;14.80;7.80;;;21.40;33.40;;;;;;5420630;26;20323;-74
2024/04/13 09:17:42;;;;;;;13.93;7.63;;;21.70;32.40;;;;;;5421304;26;20371;-75
2024/04/13 09:20:09;;;;;;;16.93;7.63;;;21.70;33.00;;;;;;5421738;26;20335;-72
2024/04/13 09:22:38;;;;;;;13.27;7.20;;;21.70;32.80;;;;;;5391167;26;20380;-72
2024/04/13 09:25:04;;;;;;;13.18;7.38;;;21.90;33.00;;;;;;5421296;26;20327;-75
2024/04/13 09:27:31;;;;;;;18.17;7.25;;;22.10;31.40;;;;;;5414518;26;20331;-75
2024/04/13 09:30:08;;;;;;;12.98;6.55;;;22.10;32.00;;;;;;5413054;26;20327;-75
2024/04/13 09:32:34;;;;;;;18.05;7.10;;;22.20;31.80;;;;;;5412848;26;20324;-73
2024/04/13 09:35:26;;;;;;;11.00;6.50;;;22.20;31.50;;;;;;5413411;26;20907;-72
2024/04/13 09:37:56;;;;;;;10.77;5.60;;;22.40;29.70;;;;;;5410357;26;20735;-73
2024/04/13 09:40:22;;;;;;;11.35;6.35;;;22.50;30.40;;;;;;5412593;26;20339;-72
2024/04/13 09:42:48;;;;;;;9.85;5.70;;;22.60;30.20;;;;;;5412823;26;20380;-73
2024/04/13 09:45:14;;;;;;;10.27;5.70;;;22.70;30.20;;;;;;5412973;26;20320;-74
2024/04/13 09:47:39;;;;;;;13.93;5.60;;;22.80;28.50;;;;;;5412890;26;20988;-73
2024/04/13 09:50:05;;;;;;;10.10;6.00;;;22.80;29.00;;;;;;5412775;26;20829;-73
2024/04/13 09:52:34;;;;;;;12.07;5.60;;;22.70;29.40;;;;;;5412540;26;20753;-75
2024/04/13 09:55:00;;;;;;;11.02;5.55;;;22.80;29.20;;;;;;5413055;26;20331;-72
2024/04/13 09:57:26;;;;;;;14.68;5.90;;;23.10;28.10;;;;;;5412421;26;20332;-72
2024/04/13 09:59:53;;;;;;;12.02;5.20;;;23.10;28.40;;;;;;5412842;26;20331;-73
2024/04/13 10:02:19;;;;;;;12.15;5.47;;;23.20;28.20;;;;;;5413279;26;20319;-75
2024/04/13 10:04:45;;;;;;;13.23;5.57;;;23.20;28.10;;;;;;5416239;26;20323;-74
2024/04/13 10:07:11;;;;;;;14.20;5.45;;;23.00;27.90;;;;;;5417053;26;20335;-74
2024/04/13 10:09:44;;;;;;;12.63;6.13;;;23.00;28.50;;;;;;5416032;26;20323;-76
2024/04/13 10:12:15;;;;;;;11.02;4.90;;;23.00;29.00;;;;;;5416785;26;20778;-73
2024/04/13 10:14:43;;;;;;;11.57;4.38;;;23.00;28.50;;;;;;5416323;26;20331;-72
2024/04/13 10:17:09;;;;;;;11.45;4.95;;;23.10;28.30;;;;;;5420261;26;20353;-72
2024/04/13 10:19:35;;;;;;;8.70;4.55;;;23.20;27.50;;;;;;5416977;26;20462;-74
2024/04/13 10:22:04;;;;;;;12.63;4.88;;;23.30;27.80;;;;;;5417421;26;20343;-74
2024/04/13 10:24:30;;;;;;;10.90;4.60;;;23.50;26.80;;;;;;5417441;26;20371;-73
2024/04/13 10:27:09;;;;;;;8.63;4.00;;;23.50;26.60;;;;;;5385747;26;20323;-73
2024/04/13 10:29:40;;;;;;;9.65;3.90;;;23.40;26.70;;;;;;5416195;26;20343;-75
2024/04/13 10:32:14;;;;;;;9.65;3.80;;;23.60;25.20;;;;;;5416227;26;20392;-74
2024/04/13 10:34:40;;;;;;;7.15;4.07;;;23.60;25.60;;;;;;5417558;26;20324;-71
2024/04/13 10:37:05;;;;;;;9.48;4.30;;;23.80;25.50;;;;;;5385084;26;20388;-74
2024/04/13 10:39:31;;;;;;;9.07;3.83;;;23.80;24.00;;;;;;5416344;26;20364;-74
2024/04/13 10:41:57;;;;;;;13.13;3.65;;;23.50;24.20;;;;;;5415850;26;20426;-73
2024/04/13 10:44:26;;;;;;;12.40;4.03;;;23.60;24.00;;;;;;5419991;26;20323;-74
2024/04/13 10:46:52;;;;;;;10.55;4.75;;;23.60;23.70;;;;;;5432234;26;20379;-72
2024/04/13 10:49:18;;;;;;;7.53;4.10;;;23.50;23.80;;;;;;5413350;26;20325;-74
2024/04/13 10:51:46;;;;;;;7.60;3.67;;;23.50;24.40;;;;;;5441879;26;20450;-74
2024/04/13 10:54:14;;;;;;;8.43;3.15;;;23.60;24.20;;;;;;5434611;26;20319;-75
2024/04/13 10:56:42;;;;;;;11.30;3.57;;;23.80;23.70;;;;;;5417842;26;20445;-75
2024/04/13 10:59:08;;;;;;;7.07;3.65;;;23.80;23.00;;;;;;5441379;26;20335;-75
2024/04/13 11:01:39;;;;;;;7.47;3.58;;;23.70;22.20;;;;;;5439847;26;20375;-73
2024/04/13 11:04:05;;;;;;;8.88;3.50;;;23.80;22.80;;;;;;5396784;26;20372;-73
2024/04/13 11:06:31;;;;;;;10.48;5.05;;;24.00;23.00;;;;;;5441429;26;20325;-74
2024/04/13 11:08:57;;;;;;;8.00;4.25;;;24.00;23.30;;;;;;5466049;26;20366;-75
2024/04/13 11:11:25;;;;;;;8.30;4.37;;;24.20;23.50;;;;;;5466947;26;20364;-74
2024/04/13 11:13:51;;;;;;;9.00;3.83;;;24.30;22.50;;;;;;5467503;26;20999;-75
2024/04/13 11:16:16;;;;;;;13.37;3.80;;;24.30;22.80;;;;;;5416267;26;20339;-74
2024/04/13 11:18:42;;;;;;;9.40;3.67;;;24.40;21.40;;;;;;5423211;26;20440;-75
2024/04/13 11:21:10;;;;;;;6.60;3.67;;;24.50;20.90;;;;;;5384934;26;20353;-74
2024/04/13 11:23:37;;;;;;;7.40;3.70;;;24.40;21.30;;;;;;5414888;26;20326;-75
2024/04/13 11:26:03;;;;;;;11.35;4.38;;;24.20;20.90;;;;;;5395122;26;20810;-75
2024/04/13 11:28:29;;;;;;;6.68;3.38;;;24.20;21.00;;;;;;5451116;26;20337;-74
2024/04/13 11:30:55;;;;;;;6.10;3.60;;;24.30;21.80;;;;;;5442994;26;20457;-72
2024/04/13 11:33:20;;;;;;;16.23;4.90;;;24.50;21.50;;;;;;5429239;26;20447;-74
2024/04/13 11:35:56;;;;;;;8.48;3.90;;;24.50;21.60;;;;;;5436948;26;20328;-73
2024/04/13 11:38:22;;;;;;;12.33;5.30;;;24.70;20.10;;;;;;5415149;26;20666;-72
2024/04/13 11:40:49;;;;;;;13.30;3.90;;;24.80;20.70;;;;;;5415063;26;20352;-71
2024/04/13 11:43:15;;;;;;;14.80;4.70;;;24.90;21.10;;;;;;5415676;26;20480;-73
2024/04/13 11:45:41;;;;;;;11.95;4.68;;;25.10;20.20;;;;;;5417615;26;20320;-73
2024/04/13 11:48:07;;;;;;;8.95;4.50;;;25.10;20.10;;;;;;5416054;26;20354;-72
2024/04/13 11:50:33;;;;;;;10.02;4.18;;;25.30;19.60;;;;;;5415275;26;20316;-73
2024/04/13 11:53:00;;;;;;;8.50;4.30;;;25.20;19.30;;;;;;5413858;26;20359;-76
2024/04/13 11:55:31;;;;;;;10.25;4.47;;;25.30;19.30;;;;;;5414236;26;20324;-71
2024/04/13 11:57:57;;;;;;;7.88;4.47;;;25.30;19.30;;;;;;5414385;26;20328;-71
2024/04/13 12:00:23;;;;;;;10.33;3.93;;;25.30;19.50;;;;;;5413809;26;20327;-71
2024/04/13 12:02:49;;;;;;;7.88;3.88;;;25.50;19.20;;;;;;5414563;26;20487;-77
2024/04/13 12:05:15;;;;;;;9.98;5.03;;;25.50;19.00;;;;;;5413804;26;20324;-72
2024/04/13 12:07:43;;;;;;;10.60;4.80;;;25.30;19.00;;;;;;5413685;26;20383;-72
2024/04/13 12:10:09;;;;;;;7.05;4.20;;;25.30;19.30;;;;;;5413544;26;20869;-72
2024/04/13 12:12:34;;;;;;;8.00;4.15;;;25.30;19.90;;;;;;5445866;26;20382;-72
2024/04/13 12:15:00;;;;;;;12.93;4.00;;;25.30;19.30;;;;;;5418996;26;20346;-74
2024/04/13 12:17:26;;;;;;;12.18;4.63;;;25.40;19.30;;;;;;5449426;26;20818;-75
2024/04/13 12:19:51;;;;;;;9.23;3.90;;;25.40;19.10;;;;;;5450353;26;20365;-72
2024/04/13 12:22:17;;;;;;;7.60;3.67;;;25.60;18.80;;;;;;5450250;26;20837;-73
2024/04/13 12:24:43;;;;;;;8.57;4.00;;;25.80;18.90;;;;;;5448953;26;20822;-72
2024/04/13 12:27:09;;;;;;;6.72;3.75;;;26.10;18.50;;;;;;5422354;26;20360;-71
2024/04/13 12:29:34;;;;;;;6.17;3.60;;;26.30;17.80;;;;;;5419433;26;20410;-75